sensor_id;sensor_type;location;lat;lon;timestamp;P1;durP1;ratioP1;P2;durP2;ratioP2
60726;SDS011;46577;49.004;12.120;2023-07-22T00:02:02;4.90;;;2.90;;
60726;SDS011;46577;49.004;12.120;2023-07-22T00:04:28;4.30;;;3.23;;
60726;SDS011;46577;49.004;12.120;2023-07-22T00:06:54;5.93;;;3.20;;
60726;SDS011;46577;49.004;12.120;2023-07-22T00:09:20;6.60;;;4.03;;
60726;SDS011;46577;49.004;12.120;2023-07-22T00:11:46;4.00;;;3.40;;
60726;SDS011;46577;49.004;12.120;2023-07-22T00:14:14;5.83;;;3.67;;
60726;SDS011;46577;49.004;12.120;2023-07-22T00:16:40;6.70;;;3.43;;
60726;SDS011;46577;49.004;12.120;2023-07-22T00:19:06;5.13;;;3.70;;
60726;SDS011;46577;49.004;12.120;2023-07-22T00:21:32;5.60;;;3.07;;
60726;SDS011;46577;49.004;12.120;2023-07-22T00:23:59;6.23;;;2.63;;
60726;SDS011;46577;49.004;12.120;2023-07-22T00:26:25;4.80;;;3.03;;
60726;SDS011;46577;49.004;12.120;2023-07-22T00:28:52;13.03;;;3.50;;
60726;SDS011;46577;49.004;12.120;2023-07-22T00:31:18;3.97;;;2.93;;
60726;SDS011;46577;49.004;12.120;2023-07-22T00:33:44;4.03;;;3.03;;
60726;SDS011;46577;49.004;12.120;2023-07-22T00:36:10;3.30;;;2.90;;
60726;SDS011;46577;49.004;12.120;2023-07-22T00:38:36;6.47;;;3.20;;
60726;SDS011;46577;49.004;12.120;2023-07-22T00:41:01;4.80;;;2.80;;
60726;SDS011;46577;49.004;12.120;2023-07-22T00:43:29;6.23;;;2.63;;
60726;SDS011;46577;49.004;12.120;2023-07-22T00:45:55;3.60;;;3.10;;
60726;SDS011;46577;49.004;12.120;2023-07-22T00:48:21;6.37;;;3.20;;
60726;SDS011;46577;49.004;12.120;2023-07-22T00:50:48;3.87;;;2.50;;
60726;SDS011;46577;49.004;12.120;2023-07-22T00:53:14;6.60;;;2.90;;
60726;SDS011;46577;49.004;12.120;2023-07-22T00:55:40;6.10;;;3.10;;
60726;SDS011;46577;49.004;12.120;2023-07-22T00:58:06;3.13;;;2.53;;
60726;SDS011;46577;49.004;12.120;2023-07-22T01:00:32;3.90;;;3.40;;
60726;SDS011;46577;49.004;12.120;2023-07-22T01:02:58;4.17;;;3.00;;
60726;SDS011;46577;49.004;12.120;2023-07-22T01:05:25;4.37;;;3.03;;
60726;SDS011;46577;49.004;12.120;2023-07-22T01:07:52;10.60;;;2.90;;
60726;SDS011;46577;49.004;12.120;2023-07-22T01:10:18;3.77;;;2.97;;
60726;SDS011;46577;49.004;12.120;2023-07-22T01:12:45;4.33;;;3.20;;
60726;SDS011;46577;49.004;12.120;2023-07-22T01:15:11;5.30;;;2.97;;
60726;SDS011;46577;49.004;12.120;2023-07-22T01:17:37;9.03;;;3.50;;
60726;SDS011;46577;49.004;12.120;2023-07-22T01:20:04;5.87;;;2.80;;
60726;SDS011;46577;49.004;12.120;2023-07-22T01:22:30;4.10;;;2.43;;
60726;SDS011;46577;49.004;12.120;2023-07-22T01:24:57;7.77;;;3.30;;
60726;SDS011;46577;49.004;12.120;2023-07-22T01:27:24;2.80;;;2.40;;
60726;SDS011;46577;49.004;12.120;2023-07-22T01:29:50;3.27;;;2.67;;
60726;SDS011;46577;49.004;12.120;2023-07-22T01:32:16;6.20;;;3.23;;
60726;SDS011;46577;49.004;12.120;2023-07-22T01:34:42;3.97;;;3.57;;
60726;SDS011;46577;49.004;12.120;2023-07-22T01:37:08;10.53;;;3.07;;
60726;SDS011;46577;49.004;12.120;2023-07-22T01:39:35;3.20;;;2.40;;
60726;SDS011;46577;49.004;12.120;2023-07-22T01:42:01;6.47;;;3.20;;
60726;SDS011;46577;49.004;12.120;2023-07-22T01:44:27;9.40;;;3.10;;
60726;SDS011;46577;49.004;12.120;2023-07-22T01:46:53;5.70;;;3.27;;
60726;SDS011;46577;49.004;12.120;2023-07-22T01:49:19;3.73;;;3.00;;
60726;SDS011;46577;49.004;12.120;2023-07-22T01:51:45;4.60;;;3.23;;
60726;SDS011;46577;49.004;12.120;2023-07-22T01:54:11;5.37;;;3.33;;
60726;SDS011;46577;49.004;12.120;2023-07-22T01:56:38;7.00;;;3.30;;
60726;SDS011;46577;49.004;12.120;2023-07-22T01:59:04;4.63;;;2.97;;
60726;SDS011;46577;49.004;12.120;2023-07-22T02:01:30;4.00;;;3.10;;
60726;SDS011;46577;49.004;12.120;2023-07-22T02:03:56;5.63;;;3.37;;
60726;SDS011;46577;49.004;12.120;2023-07-22T02:06:22;2.93;;;2.63;;
60726;SDS011;46577;49.004;12.120;2023-07-22T02:08:48;10.30;;;2.90;;
60726;SDS011;46577;49.004;12.120;2023-07-22T02:11:14;5.73;;;2.80;;
60726;SDS011;46577;49.004;12.120;2023-07-22T02:13:40;6.27;;;3.43;;
60726;SDS011;46577;49.004;12.120;2023-07-22T02:16:06;5.10;;;3.37;;
60726;SDS011;46577;49.004;12.120;2023-07-22T02:18:36;6.83;;;3.20;;
60726;SDS011;46577;49.004;12.120;2023-07-22T02:21:02;5.83;;;3.90;;
60726;SDS011;46577;49.004;12.120;2023-07-22T02:23:28;7.57;;;3.73;;
60726;SDS011;46577;49.004;12.120;2023-07-22T02:25:54;4.10;;;3.27;;
60726;SDS011;46577;49.004;12.120;2023-07-22T02:28:20;4.97;;;3.10;;
60726;SDS011;46577;49.004;12.120;2023-07-22T02:30:48;6.77;;;3.43;;
60726;SDS011;46577;49.004;12.120;2023-07-22T02:33:14;6.33;;;3.90;;
60726;SDS011;46577;49.004;12.120;2023-07-22T02:35:40;4.13;;;3.20;;
60726;SDS011;46577;49.004;12.120;2023-07-22T02:38:06;5.37;;;3.30;;
60726;SDS011;46577;49.004;12.120;2023-07-22T02:40:36;4.47;;;3.23;;
60726;SDS011;46577;49.004;12.120;2023-07-22T02:43:02;5.20;;;3.20;;
60726;SDS011;46577;49.004;12.120;2023-07-22T02:45:28;5.60;;;3.77;;
60726;SDS011;46577;49.004;12.120;2023-07-22T02:47:54;3.60;;;2.70;;
60726;SDS011;46577;49.004;12.120;2023-07-22T02:50:20;8.77;;;3.20;;
60726;SDS011;46577;49.004;12.120;2023-07-22T02:52:46;3.53;;;2.93;;
60726;SDS011;46577;49.004;12.120;2023-07-22T02:55:15;8.50;;;3.60;;
60726;SDS011;46577;49.004;12.120;2023-07-22T02:57:45;7.10;;;3.40;;
60726;SDS011;46577;49.004;12.120;2023-07-22T03:00:12;5.97;;;3.33;;
60726;SDS011;46577;49.004;12.120;2023-07-22T03:02:38;3.87;;;3.27;;
60726;SDS011;46577;49.004;12.120;2023-07-22T03:05:05;6.23;;;3.83;;
60726;SDS011;46577;49.004;12.120;2023-07-22T03:07:39;5.53;;;3.10;;
60726;SDS011;46577;49.004;12.120;2023-07-22T03:10:05;10.77;;;3.90;;
60726;SDS011;46577;49.004;12.120;2023-07-22T03:12:32;5.73;;;3.50;;
60726;SDS011;46577;49.004;12.120;2023-07-22T03:14:58;7.53;;;4.03;;
60726;SDS011;46577;49.004;12.120;2023-07-22T03:17:24;4.60;;;3.40;;
60726;SDS011;46577;49.004;12.120;2023-07-22T03:19:50;7.13;;;3.60;;
60726;SDS011;46577;49.004;12.120;2023-07-22T03:22:16;5.93;;;3.67;;
60726;SDS011;46577;49.004;12.120;2023-07-22T03:24:43;6.73;;;4.70;;
60726;SDS011;46577;49.004;12.120;2023-07-22T03:27:09;4.97;;;3.33;;
60726;SDS011;46577;49.004;12.120;2023-07-22T03:29:36;6.30;;;3.10;;
60726;SDS011;46577;49.004;12.120;2023-07-22T03:32:02;6.30;;;3.60;;
60726;SDS011;46577;49.004;12.120;2023-07-22T03:34:28;5.87;;;3.30;;
60726;SDS011;46577;49.004;12.120;2023-07-22T03:36:54;5.70;;;3.37;;
60726;SDS011;46577;49.004;12.120;2023-07-22T03:39:20;4.60;;;3.37;;
60726;SDS011;46577;49.004;12.120;2023-07-22T03:41:46;6.53;;;3.90;;
60726;SDS011;46577;49.004;12.120;2023-07-22T03:44:11;7.23;;;4.60;;
60726;SDS011;46577;49.004;12.120;2023-07-22T03:46:38;11.17;;;4.13;;
60726;SDS011;46577;49.004;12.120;2023-07-22T03:49:04;5.90;;;3.80;;
60726;SDS011;46577;49.004;12.120;2023-07-22T03:51:30;3.93;;;3.10;;
60726;SDS011;46577;49.004;12.120;2023-07-22T03:53:57;7.20;;;3.43;;
60726;SDS011;46577;49.004;12.120;2023-07-22T03:56:23;5.50;;;3.60;;
60726;SDS011;46577;49.004;12.120;2023-07-22T03:58:52;7.37;;;4.37;;
60726;SDS011;46577;49.004;12.120;2023-07-22T04:01:18;5.93;;;3.30;;
60726;SDS011;46577;49.004;12.120;2023-07-22T04:03:45;9.80;;;3.90;;
60726;SDS011;46577;49.004;12.120;2023-07-22T04:06:11;5.67;;;3.60;;
60726;SDS011;46577;49.004;12.120;2023-07-22T04:08:37;7.87;;;3.90;;
60726;SDS011;46577;49.004;12.120;2023-07-22T04:11:03;7.73;;;3.67;;
60726;SDS011;46577;49.004;12.120;2023-07-22T04:13:29;7.67;;;3.23;;
60726;SDS011;46577;49.004;12.120;2023-07-22T04:15:55;7.53;;;3.50;;
60726;SDS011;46577;49.004;12.120;2023-07-22T04:18:21;6.20;;;3.50;;
60726;SDS011;46577;49.004;12.120;2023-07-22T04:20:47;4.60;;;3.33;;
60726;SDS011;46577;49.004;12.120;2023-07-22T04:23:13;5.80;;;3.80;;
60726;SDS011;46577;49.004;12.120;2023-07-22T04:25:40;4.80;;;3.47;;
60726;SDS011;46577;49.004;12.120;2023-07-22T04:28:06;4.23;;;2.67;;
60726;SDS011;46577;49.004;12.120;2023-07-22T04:30:33;4.97;;;3.40;;
60726;SDS011;46577;49.004;12.120;2023-07-22T04:32:59;5.83;;;3.30;;
60726;SDS011;46577;49.004;12.120;2023-07-22T04:35:25;5.53;;;3.33;;
60726;SDS011;46577;49.004;12.120;2023-07-22T04:37:51;4.90;;;3.17;;
60726;SDS011;46577;49.004;12.120;2023-07-22T04:40:17;6.13;;;3.50;;
60726;SDS011;46577;49.004;12.120;2023-07-22T04:42:43;4.00;;;3.07;;
60726;SDS011;46577;49.004;12.120;2023-07-22T04:45:10;5.93;;;3.17;;
60726;SDS011;46577;49.004;12.120;2023-07-22T04:47:36;7.80;;;3.80;;
60726;SDS011;46577;49.004;12.120;2023-07-22T04:50:04;3.20;;;2.70;;
60726;SDS011;46577;49.004;12.120;2023-07-22T04:52:34;8.07;;;2.53;;
60726;SDS011;46577;49.004;12.120;2023-07-22T04:55:00;5.40;;;2.80;;
60726;SDS011;46577;49.004;12.120;2023-07-22T04:57:27;4.33;;;3.07;;
60726;SDS011;46577;49.004;12.120;2023-07-22T04:59:53;4.30;;;3.30;;
60726;SDS011;46577;49.004;12.120;2023-07-22T05:02:19;5.37;;;3.30;;
60726;SDS011;46577;49.004;12.120;2023-07-22T05:04:45;10.30;;;3.10;;
60726;SDS011;46577;49.004;12.120;2023-07-22T05:07:11;5.83;;;2.37;;
60726;SDS011;46577;49.004;12.120;2023-07-22T05:09:37;4.73;;;2.60;;
60726;SDS011;46577;49.004;12.120;2023-07-22T05:12:03;5.10;;;3.40;;
60726;SDS011;46577;49.004;12.120;2023-07-22T05:14:29;5.57;;;3.03;;
60726;SDS011;46577;49.004;12.120;2023-07-22T05:16:55;3.70;;;2.73;;
60726;SDS011;46577;49.004;12.120;2023-07-22T05:19:21;5.93;;;2.57;;
60726;SDS011;46577;49.004;12.120;2023-07-22T05:21:47;7.40;;;2.80;;
60726;SDS011;46577;49.004;12.120;2023-07-22T05:24:13;4.00;;;3.00;;
60726;SDS011;46577;49.004;12.120;2023-07-22T05:26:39;3.60;;;2.30;;
60726;SDS011;46577;49.004;12.120;2023-07-22T05:29:05;5.73;;;2.80;;
60726;SDS011;46577;49.004;12.120;2023-07-22T05:31:32;2.70;;;2.30;;
60726;SDS011;46577;49.004;12.120;2023-07-22T05:33:58;5.27;;;3.10;;
60726;SDS011;46577;49.004;12.120;2023-07-22T05:36:24;3.77;;;2.27;;
60726;SDS011;46577;49.004;12.120;2023-07-22T05:38:50;3.57;;;2.20;;
60726;SDS011;46577;49.004;12.120;2023-07-22T05:41:16;4.23;;;2.53;;
60726;SDS011;46577;49.004;12.120;2023-07-22T05:43:42;2.50;;;2.30;;
60726;SDS011;46577;49.004;12.120;2023-07-22T05:46:08;5.30;;;2.43;;
60726;SDS011;46577;49.004;12.120;2023-07-22T05:48:34;3.73;;;2.33;;
60726;SDS011;46577;49.004;12.120;2023-07-22T05:51:00;4.37;;;2.57;;
60726;SDS011;46577;49.004;12.120;2023-07-22T05:53:26;2.33;;;2.17;;
60726;SDS011;46577;49.004;12.120;2023-07-22T05:55:52;4.40;;;2.53;;
60726;SDS011;46577;49.004;12.120;2023-07-22T05:58:18;7.93;;;2.37;;
60726;SDS011;46577;49.004;12.120;2023-07-22T06:00:44;4.37;;;2.77;;
60726;SDS011;46577;49.004;12.120;2023-07-22T06:03:10;4.07;;;2.30;;
60726;SDS011;46577;49.004;12.120;2023-07-22T06:05:36;3.83;;;3.10;;
60726;SDS011;46577;49.004;12.120;2023-07-22T06:08:02;4.80;;;2.43;;
60726;SDS011;46577;49.004;12.120;2023-07-22T06:10:29;2.77;;;2.17;;
60726;SDS011;46577;49.004;12.120;2023-07-22T06:12:55;4.50;;;2.97;;
60726;SDS011;46577;49.004;12.120;2023-07-22T06:15:21;4.10;;;2.67;;
60726;SDS011;46577;49.004;12.120;2023-07-22T06:17:47;6.70;;;2.93;;
60726;SDS011;46577;49.004;12.120;2023-07-22T06:20:13;3.63;;;3.03;;
60726;SDS011;46577;49.004;12.120;2023-07-22T06:22:39;2.40;;;2.20;;
60726;SDS011;46577;49.004;12.120;2023-07-22T06:25:05;5.50;;;2.60;;
60726;SDS011;46577;49.004;12.120;2023-07-22T06:27:31;7.07;;;2.07;;
60726;SDS011;46577;49.004;12.120;2023-07-22T06:29:57;4.30;;;2.70;;
60726;SDS011;46577;49.004;12.120;2023-07-22T06:32:23;5.30;;;2.80;;
60726;SDS011;46577;49.004;12.120;2023-07-22T06:34:49;10.83;;;3.00;;
60726;SDS011;46577;49.004;12.120;2023-07-22T06:37:15;3.13;;;2.33;;
60726;SDS011;46577;49.004;12.120;2023-07-22T06:39:41;5.60;;;2.50;;
60726;SDS011;46577;49.004;12.120;2023-07-22T06:42:07;3.00;;;2.17;;
60726;SDS011;46577;49.004;12.120;2023-07-22T06:44:33;3.90;;;2.57;;
60726;SDS011;46577;49.004;12.120;2023-07-22T06:46:59;2.90;;;2.57;;
60726;SDS011;46577;49.004;12.120;2023-07-22T06:49:25;5.57;;;2.80;;
60726;SDS011;46577;49.004;12.120;2023-07-22T06:51:51;3.90;;;3.30;;
60726;SDS011;46577;49.004;12.120;2023-07-22T06:54:17;2.30;;;2.10;;
60726;SDS011;46577;49.004;12.120;2023-07-22T06:56:43;9.13;;;2.70;;
60726;SDS011;46577;49.004;12.120;2023-07-22T06:59:09;2.10;;;2.00;;
60726;SDS011;46577;49.004;12.120;2023-07-22T07:01:35;4.90;;;1.80;;
60726;SDS011;46577;49.004;12.120;2023-07-22T07:04:01;3.53;;;2.50;;
60726;SDS011;46577;49.004;12.120;2023-07-22T07:06:28;4.80;;;2.50;;
60726;SDS011;46577;49.004;12.120;2023-07-22T07:08:54;4.10;;;2.20;;
60726;SDS011;46577;49.004;12.120;2023-07-22T07:11:21;4.10;;;2.07;;
60726;SDS011;46577;49.004;12.120;2023-07-22T07:13:47;8.93;;;2.20;;
60726;SDS011;46577;49.004;12.120;2023-07-22T07:16:22;2.60;;;2.00;;
60726;SDS011;46577;49.004;12.120;2023-07-22T07:18:49;2.07;;;1.93;;
60726;SDS011;46577;49.004;12.120;2023-07-22T07:21:16;2.27;;;1.97;;
60726;SDS011;46577;49.004;12.120;2023-07-22T07:23:42;8.00;;;1.70;;
60726;SDS011;46577;49.004;12.120;2023-07-22T07:26:08;6.90;;;2.53;;
60726;SDS011;46577;49.004;12.120;2023-07-22T07:28:34;6.68;;;1.83;;
60726;SDS011;46577;49.004;12.120;2023-07-22T07:31:00;2.15;;;1.60;;
60726;SDS011;46577;49.004;12.120;2023-07-22T07:33:26;3.97;;;1.55;;
60726;SDS011;46577;49.004;12.120;2023-07-22T07:35:52;3.00;;;1.60;;
60726;SDS011;46577;49.004;12.120;2023-07-22T07:38:18;2.08;;;1.60;;
60726;SDS011;46577;49.004;12.120;2023-07-22T07:40:44;1.60;;;1.50;;
60726;SDS011;46577;49.004;12.120;2023-07-22T07:43:10;2.28;;;1.40;;
60726;SDS011;46577;49.004;12.120;2023-07-22T07:45:39;1.73;;;1.63;;
60726;SDS011;46577;49.004;12.120;2023-07-22T07:48:05;3.50;;;1.67;;
60726;SDS011;46577;49.004;12.120;2023-07-22T07:50:34;6.30;;;1.60;;
60726;SDS011;46577;49.004;12.120;2023-07-22T07:53:00;2.42;;;1.42;;
60726;SDS011;46577;49.004;12.120;2023-07-22T07:55:26;3.10;;;1.48;;
60726;SDS011;46577;49.004;12.120;2023-07-22T07:57:52;1.50;;;1.40;;
60726;SDS011;46577;49.004;12.120;2023-07-22T08:00:18;1.98;;;1.13;;
60726;SDS011;46577;49.004;12.120;2023-07-22T08:02:45;1.58;;;1.48;;
60726;SDS011;46577;49.004;12.120;2023-07-22T08:05:11;2.13;;;1.27;;
60726;SDS011;46577;49.004;12.120;2023-07-22T08:07:37;6.47;;;1.33;;
60726;SDS011;46577;49.004;12.120;2023-07-22T08:10:04;1.75;;;1.33;;
60726;SDS011;46577;49.004;12.120;2023-07-22T08:12:32;2.00;;;1.52;;
60726;SDS011;46577;49.004;12.120;2023-07-22T08:14:58;6.47;;;1.30;;
60726;SDS011;46577;49.004;12.120;2023-07-22T08:17:24;1.42;;;1.33;;
60726;SDS011;46577;49.004;12.120;2023-07-22T08:19:51;5.85;;;1.20;;
60726;SDS011;46577;49.004;12.120;2023-07-22T08:22:17;1.25;;;1.15;;
60726;SDS011;46577;49.004;12.120;2023-07-22T08:24:43;1.83;;;1.52;;
60726;SDS011;46577;49.004;12.120;2023-07-22T08:27:09;1.40;;;1.30;;
60726;SDS011;46577;49.004;12.120;2023-07-22T08:29:36;2.70;;;1.27;;
60726;SDS011;46577;49.004;12.120;2023-07-22T08:32:02;1.17;;;1.10;;
60726;SDS011;46577;49.004;12.120;2023-07-22T08:34:28;1.35;;;1.10;;
60726;SDS011;46577;49.004;12.120;2023-07-22T08:36:54;1.52;;;1.05;;
60726;SDS011;46577;49.004;12.120;2023-07-22T08:39:20;1.42;;;1.17;;
60726;SDS011;46577;49.004;12.120;2023-07-22T08:41:47;1.17;;;1.08;;
60726;SDS011;46577;49.004;12.120;2023-07-22T08:44:16;0.80;;;0.80;;
60726;SDS011;46577;49.004;12.120;2023-07-22T08:46:44;1.23;;;1.00;;
60726;SDS011;46577;49.004;12.120;2023-07-22T08:49:11;4.32;;;0.90;;
60726;SDS011;46577;49.004;12.120;2023-07-22T08:51:37;1.50;;;1.13;;
60726;SDS011;46577;49.004;12.120;2023-07-22T08:54:03;1.83;;;1.27;;
60726;SDS011;46577;49.004;12.120;2023-07-22T08:56:29;1.00;;;0.90;;
60726;SDS011;46577;49.004;12.120;2023-07-22T08:58:55;0.90;;;0.90;;
60726;SDS011;46577;49.004;12.120;2023-07-22T09:01:22;2.35;;;0.90;;
60726;SDS011;46577;49.004;12.120;2023-07-22T09:03:49;3.33;;;1.23;;
60726;SDS011;46577;49.004;12.120;2023-07-22T09:06:18;1.10;;;1.00;;
60726;SDS011;46577;49.004;12.120;2023-07-22T09:08:44;1.92;;;1.38;;
60726;SDS011;46577;49.004;12.120;2023-07-22T09:11:10;0.77;;;0.77;;
60726;SDS011;46577;49.004;12.120;2023-07-22T09:13:37;1.50;;;1.38;;
60726;SDS011;46577;49.004;12.120;2023-07-22T09:16:05;1.20;;;0.88;;
60726;SDS011;46577;49.004;12.120;2023-07-22T09:18:32;1.10;;;1.08;;
60726;SDS011;46577;49.004;12.120;2023-07-22T09:20:59;1.23;;;1.13;;
60726;SDS011;46577;49.004;12.120;2023-07-22T09:23:34;1.13;;;1.02;;
60726;SDS011;46577;49.004;12.120;2023-07-22T09:26:14;3.25;;;1.20;;
60726;SDS011;46577;49.004;12.120;2023-07-22T09:28:56;3.40;;;1.17;;
60726;SDS011;46577;49.004;12.120;2023-07-22T09:31:23;4.07;;;1.33;;
60726;SDS011;46577;49.004;12.120;2023-07-22T09:33:49;1.75;;;1.05;;
60726;SDS011;46577;49.004;12.120;2023-07-22T09:36:15;1.30;;;1.20;;
60726;SDS011;46577;49.004;12.120;2023-07-22T09:38:41;1.83;;;1.33;;
60726;SDS011;46577;49.004;12.120;2023-07-22T09:41:08;2.00;;;1.23;;
60726;SDS011;46577;49.004;12.120;2023-07-22T09:43:40;3.70;;;1.67;;
60726;SDS011;46577;49.004;12.120;2023-07-22T09:46:10;2.33;;;1.77;;
60726;SDS011;46577;49.004;12.120;2023-07-22T09:48:39;1.90;;;1.53;;
60726;SDS011;46577;49.004;12.120;2023-07-22T09:51:06;1.93;;;1.37;;
60726;SDS011;46577;49.004;12.120;2023-07-22T09:53:36;4.13;;;1.93;;
60726;SDS011;46577;49.004;12.120;2023-07-22T09:56:05;3.27;;;2.13;;
60726;SDS011;46577;49.004;12.120;2023-07-22T09:58:31;6.70;;;2.10;;
60726;SDS011;46577;49.004;12.120;2023-07-22T10:00:58;3.57;;;2.23;;
60726;SDS011;46577;49.004;12.120;2023-07-22T10:03:24;2.80;;;2.17;;
60726;SDS011;46577;49.004;12.120;2023-07-22T10:05:55;2.80;;;2.13;;
60726;SDS011;46577;49.004;12.120;2023-07-22T10:08:23;2.03;;;1.93;;
60726;SDS011;46577;49.004;12.120;2023-07-22T10:10:51;2.60;;;2.40;;
60726;SDS011;46577;49.004;12.120;2023-07-22T10:13:19;4.20;;;2.80;;
60726;SDS011;46577;49.004;12.120;2023-07-22T10:15:45;2.33;;;2.13;;
60726;SDS011;46577;49.004;12.120;2023-07-22T10:18:11;3.63;;;1.77;;
60726;SDS011;46577;49.004;12.120;2023-07-22T10:20:37;3.57;;;1.93;;
60726;SDS011;46577;49.004;12.120;2023-07-22T10:23:04;2.27;;;1.67;;
60726;SDS011;46577;49.004;12.120;2023-07-22T10:25:33;1.23;;;1.13;;
60726;SDS011;46577;49.004;12.120;2023-07-22T10:27:59;2.55;;;1.25;;
60726;SDS011;46577;49.004;12.120;2023-07-22T10:30:25;1.30;;;1.20;;
60726;SDS011;46577;49.004;12.120;2023-07-22T10:32:52;3.43;;;1.33;;
60726;SDS011;46577;49.004;12.120;2023-07-22T10:38:10;3.67;;;1.80;;
60726;SDS011;46577;49.004;12.120;2023-07-22T10:40:45;6.43;;;1.47;;
60726;SDS011;46577;49.004;12.120;2023-07-22T10:43:11;3.10;;;2.03;;
60726;SDS011;46577;49.004;12.120;2023-07-22T10:45:41;3.10;;;2.07;;
60726;SDS011;46577;49.004;12.120;2023-07-22T10:48:08;3.77;;;2.33;;
60726;SDS011;46577;49.004;12.120;2023-07-22T10:53:28;2.80;;;1.83;;
60726;SDS011;46577;49.004;12.120;2023-07-22T10:59:15;3.63;;;2.20;;
60726;SDS011;46577;49.004;12.120;2023-07-22T11:06:37;3.20;;;1.90;;
60726;SDS011;46577;49.004;12.120;2023-07-22T11:09:03;7.60;;;1.70;;
60726;SDS011;46577;49.004;12.120;2023-07-22T11:11:36;1.97;;;1.50;;
60726;SDS011;46577;49.004;12.120;2023-07-22T11:14:18;3.72;;;1.42;;
60726;SDS011;46577;49.004;12.120;2023-07-22T11:16:46;6.30;;;1.13;;
60726;SDS011;46577;49.004;12.120;2023-07-22T11:19:13;1.63;;;1.00;;
60726;SDS011;46577;49.004;12.120;2023-07-22T11:21:39;1.10;;;1.00;;
60726;SDS011;46577;49.004;12.120;2023-07-22T11:24:06;1.63;;;1.00;;
60726;SDS011;46577;49.004;12.120;2023-07-22T11:26:32;1.90;;;1.23;;
60726;SDS011;46577;49.004;12.120;2023-07-22T11:29:05;1.48;;;1.25;;
60726;SDS011;46577;49.004;12.120;2023-07-22T11:31:31;1.60;;;1.20;;
60726;SDS011;46577;49.004;12.120;2023-07-22T11:33:58;2.88;;;1.15;;
60726;SDS011;46577;49.004;12.120;2023-07-22T11:36:24;2.33;;;1.60;;
60726;SDS011;46577;49.004;12.120;2023-07-22T11:38:50;1.67;;;1.27;;
60726;SDS011;46577;49.004;12.120;2023-07-22T11:41:16;1.70;;;1.20;;
60726;SDS011;46577;49.004;12.120;2023-07-22T11:43:43;3.20;;;1.70;;
60726;SDS011;46577;49.004;12.120;2023-07-22T11:46:09;4.10;;;1.60;;
60726;SDS011;46577;49.004;12.120;2023-07-22T11:48:35;1.87;;;1.70;;
60726;SDS011;46577;49.004;12.120;2023-07-22T11:51:01;2.87;;;1.70;;
60726;SDS011;46577;49.004;12.120;2023-07-22T11:53:27;1.57;;;1.47;;
60726;SDS011;46577;49.004;12.120;2023-07-22T11:55:57;1.87;;;1.77;;
60726;SDS011;46577;49.004;12.120;2023-07-22T11:58:26;3.27;;;2.00;;
60726;SDS011;46577;49.004;12.120;2023-07-22T12:01:06;3.17;;;2.10;;
60726;SDS011;46577;49.004;12.120;2023-07-22T12:03:33;2.77;;;1.50;;
60726;SDS011;46577;49.004;12.120;2023-07-22T12:06:03;2.87;;;2.00;;
60726;SDS011;46577;49.004;12.120;2023-07-22T12:08:29;4.40;;;1.70;;
60726;SDS011;46577;49.004;12.120;2023-07-22T12:10:58;1.73;;;1.60;;
60726;SDS011;46577;49.004;12.120;2023-07-22T12:13:25;3.47;;;1.50;;
60726;SDS011;46577;49.004;12.120;2023-07-22T12:16:00;2.10;;;1.87;;
60726;SDS011;46577;49.004;12.120;2023-07-22T12:18:27;1.70;;;1.57;;
60726;SDS011;46577;49.004;12.120;2023-07-22T12:20:53;3.50;;;1.93;;
60726;SDS011;46577;49.004;12.120;2023-07-22T12:23:19;2.30;;;2.10;;
60726;SDS011;46577;49.004;12.120;2023-07-22T12:25:46;4.00;;;1.93;;
60726;SDS011;46577;49.004;12.120;2023-07-22T12:28:12;1.70;;;1.40;;
60726;SDS011;46577;49.004;12.120;2023-07-22T12:30:38;2.03;;;1.67;;
60726;SDS011;46577;49.004;12.120;2023-07-22T12:33:04;2.70;;;1.67;;
60726;SDS011;46577;49.004;12.120;2023-07-22T12:35:30;3.67;;;1.87;;
60726;SDS011;46577;49.004;12.120;2023-07-22T12:37:56;2.20;;;1.77;;
60726;SDS011;46577;49.004;12.120;2023-07-22T12:40:22;2.17;;;1.97;;
60726;SDS011;46577;49.004;12.120;2023-07-22T12:42:48;4.73;;;2.40;;
60726;SDS011;46577;49.004;12.120;2023-07-22T12:45:14;3.57;;;2.10;;
60726;SDS011;46577;49.004;12.120;2023-07-22T12:47:40;1.90;;;1.80;;
60726;SDS011;46577;49.004;12.120;2023-07-22T12:50:06;1.87;;;1.77;;
60726;SDS011;46577;49.004;12.120;2023-07-22T12:52:32;3.40;;;2.37;;
60726;SDS011;46577;49.004;12.120;2023-07-22T12:54:58;5.83;;;1.80;;
60726;SDS011;46577;49.004;12.120;2023-07-22T12:57:24;2.60;;;1.90;;
60726;SDS011;46577;49.004;12.120;2023-07-22T12:59:50;4.33;;;1.63;;
60726;SDS011;46577;49.004;12.120;2023-07-22T13:02:16;6.73;;;2.07;;
60726;SDS011;46577;49.004;12.120;2023-07-22T13:04:42;6.50;;;1.97;;
60726;SDS011;46577;49.004;12.120;2023-07-22T13:07:09;2.90;;;2.10;;
60726;SDS011;46577;49.004;12.120;2023-07-22T13:09:35;5.50;;;2.47;;
60726;SDS011;46577;49.004;12.120;2023-07-22T13:12:01;4.00;;;2.20;;
60726;SDS011;46577;49.004;12.120;2023-07-22T13:14:27;9.50;;;2.20;;
60726;SDS011;46577;49.004;12.120;2023-07-22T13:16:53;2.30;;;2.00;;
60726;SDS011;46577;49.004;12.120;2023-07-22T13:19:19;3.07;;;1.90;;
60726;SDS011;46577;49.004;12.120;2023-07-22T13:21:45;2.57;;;1.50;;
60726;SDS011;46577;49.004;12.120;2023-07-22T13:24:11;5.30;;;2.10;;
60726;SDS011;46577;49.004;12.120;2023-07-22T13:26:37;3.40;;;2.10;;
60726;SDS011;46577;49.004;12.120;2023-07-22T13:29:03;2.57;;;2.37;;
60726;SDS011;46577;49.004;12.120;2023-07-22T13:31:29;3.43;;;2.13;;
60726;SDS011;46577;49.004;12.120;2023-07-22T13:33:55;2.63;;;2.13;;
60726;SDS011;46577;49.004;12.120;2023-07-22T13:36:21;2.40;;;2.10;;
60726;SDS011;46577;49.004;12.120;2023-07-22T13:38:47;3.97;;;2.17;;
60726;SDS011;46577;49.004;12.120;2023-07-22T13:41:12;5.93;;;1.87;;
60726;SDS011;46577;49.004;12.120;2023-07-22T13:43:38;2.40;;;2.00;;
60726;SDS011;46577;49.004;12.120;2023-07-22T13:46:04;2.70;;;2.40;;
60726;SDS011;46577;49.004;12.120;2023-07-22T13:48:30;4.03;;;2.23;;
60726;SDS011;46577;49.004;12.120;2023-07-22T13:50:56;2.27;;;2.03;;
60726;SDS011;46577;49.004;12.120;2023-07-22T13:53:22;5.33;;;2.20;;
60726;SDS011;46577;49.004;12.120;2023-07-22T13:55:48;2.53;;;2.10;;
60726;SDS011;46577;49.004;12.120;2023-07-22T13:58:14;2.67;;;2.20;;
60726;SDS011;46577;49.004;12.120;2023-07-22T14:00:40;4.40;;;2.50;;
60726;SDS011;46577;49.004;12.120;2023-07-22T14:03:06;2.27;;;2.07;;
60726;SDS011;46577;49.004;12.120;2023-07-22T14:05:32;3.47;;;2.60;;
60726;SDS011;46577;49.004;12.120;2023-07-22T14:07:58;3.73;;;2.37;;
60726;SDS011;46577;49.004;12.120;2023-07-22T14:10:24;2.40;;;2.10;;
60726;SDS011;46577;49.004;12.120;2023-07-22T14:12:50;2.60;;;2.37;;
60726;SDS011;46577;49.004;12.120;2023-07-22T14:15:16;4.10;;;2.63;;
60726;SDS011;46577;49.004;12.120;2023-07-22T14:17:42;5.30;;;2.23;;
60726;SDS011;46577;49.004;12.120;2023-07-22T14:20:09;2.73;;;2.30;;
60726;SDS011;46577;49.004;12.120;2023-07-22T14:22:36;4.60;;;2.33;;
60726;SDS011;46577;49.004;12.120;2023-07-22T14:25:02;3.37;;;2.37;;
60726;SDS011;46577;49.004;12.120;2023-07-22T14:27:28;4.80;;;2.70;;
60726;SDS011;46577;49.004;12.120;2023-07-22T14:29:54;9.43;;;3.30;;
60726;SDS011;46577;49.004;12.120;2023-07-22T14:32:20;2.97;;;2.40;;
60726;SDS011;46577;49.004;12.120;2023-07-22T14:34:46;2.53;;;2.17;;
60726;SDS011;46577;49.004;12.120;2023-07-22T14:37:13;4.17;;;2.83;;
60726;SDS011;46577;49.004;12.120;2023-07-22T14:39:39;3.07;;;2.20;;
60726;SDS011;46577;49.004;12.120;2023-07-22T14:42:05;4.57;;;2.40;;
60726;SDS011;46577;49.004;12.120;2023-07-22T14:44:31;4.43;;;2.50;;